createdAt,value
2018-05-06T00:01:48.727Z,63.29
2018-05-06T00:03:09.735Z,63.07
2018-05-06T00:03:48.738Z,63.54
2018-05-06T00:04:55.233Z,63.92
2018-05-06T00:05:49.288Z,63.64
2018-05-06T00:06:49.238Z,63.54
2018-05-06T00:07:49.233Z,63.83
2018-05-06T00:08:49.732Z,63.92
2018-05-06T00:09:49.734Z,63.92
2018-05-06T00:10:49.733Z,64.02
2018-05-06T00:11:49.737Z,64.40
2018-05-06T00:12:49.379Z,64.02
2018-05-06T00:13:50.230Z,64.12
2018-05-06T00:14:50.232Z,64.69
2018-05-06T00:15:49.703Z,64.02
2018-05-06T00:17:14.223Z,64.21
2018-05-06T00:17:49.930Z,62.88
2018-05-06T00:18:50.743Z,63.26
2018-05-06T00:19:50.732Z,63.35
2018-05-06T00:20:50.203Z,63.17
2018-05-06T00:23:22.461Z,64.12
2018-05-06T00:24:21.836Z,64.28
2018-05-06T00:25:22.474Z,64.59
2018-05-06T00:28:15.228Z,64.18
2018-05-06T00:28:54.235Z,64.47
2018-05-06T00:30:15.236Z,64.84
2018-05-06T00:30:54.735Z,64.47
2018-05-06T00:31:53.954Z,63.80
2018-05-06T00:33:18.167Z,64.65
2018-05-06T00:33:54.735Z,64.65
2018-05-06T00:34:54.344Z,65.03
2018-05-06T00:36:01.237Z,65.32
2018-05-06T00:36:55.235Z,65.70
2018-05-06T00:37:55.234Z,65.70
2018-05-06T00:38:55.732Z,65.03
2018-05-06T00:39:57.733Z,65.51
2018-05-06T00:40:55.096Z,65.03
2018-05-06T00:41:55.737Z,65.13
2018-05-06T00:43:17.234Z,64.84
2018-05-06T00:43:56.242Z,65.03
2018-05-06T00:44:56.234Z,65.03
2018-05-06T00:45:56.235Z,65.13
2018-05-06T00:48:28.017Z,65.03
2018-05-06T00:49:28.021Z,64.56
2018-05-06T00:50:28.028Z,65.32
2018-05-06T00:51:48.605Z,65.70
2018-05-06T00:52:31.018Z,65.42
2018-05-06T00:53:27.864Z,65.23
2018-05-06T00:54:28.518Z,65.51
2018-05-06T00:55:50.019Z,65.61
2018-05-06T00:58:00.398Z,65.32
2018-05-06T00:59:00.401Z,65.61
2018-05-06T01:00:14.421Z,65.51
2018-05-06T01:02:32.173Z,64.90
2018-05-06T01:03:32.180Z,65.19
2018-05-06T01:04:32.179Z,65.48
2018-05-06T01:05:32.681Z,65.67
2018-05-06T01:06:55.134Z,65.19
2018-05-06T01:07:32.715Z,65.38
2018-05-06T01:08:34.153Z,65.58
2018-05-06T01:09:32.680Z,65.29
2018-05-06T01:12:04.428Z,66.24
2018-05-06T01:13:04.434Z,65.67
2018-05-06T01:14:04.443Z,66.33
2018-05-06T01:18:07.607Z,66.33
2018-05-06T01:19:07.615Z,65.67
2018-05-06T01:20:07.084Z,65.77
2018-05-06T01:21:29.114Z,65.86
2018-05-06T01:22:08.121Z,65.95
2018-05-06T01:23:08.114Z,65.77
2018-05-06T01:24:10.091Z,65.77
2018-05-06T01:27:00.839Z,66.53
2018-05-06T01:28:00.840Z,66.53
2018-05-06T01:28:39.841Z,66.68
2018-05-06T01:30:00.442Z,66.81
2018-05-06T01:32:11.703Z,66.81
2018-05-06T01:33:11.715Z,66.30
2018-05-06T01:34:32.757Z,66.43
2018-05-06T01:35:12.210Z,66.97
2018-05-06T01:37:43.476Z,67.25
2018-05-06T01:38:45.475Z,66.87
2018-05-06T01:40:04.475Z,67.35
2018-05-06T01:41:06.449Z,67.07
2018-05-06T01:41:44.951Z,67.16
2018-05-06T01:42:57.974Z,66.87
2018-05-06T01:44:04.973Z,66.87
2018-05-06T01:45:05.480Z,67.63
2018-05-06T01:47:15.442Z,67.92
2018-05-06T01:48:16.394Z,67.44
2018-05-06T01:50:47.764Z,68.01
2018-05-06T01:51:53.771Z,68.21
2018-05-06T01:52:47.767Z,68.21
2018-05-06T01:54:10.704Z,67.73
2018-05-06T01:54:48.270Z,67.73
2018-05-06T01:55:48.271Z,67.92
2018-05-06T01:56:48.271Z,67.92
2018-05-06T01:59:41.029Z,67.92
2018-05-06T02:02:12.538Z,67.82
2018-05-06T02:03:12.485Z,67.63
2018-05-06T02:03:52.548Z,68.21
2018-05-06T02:04:52.998Z,68.87
2018-05-06T02:07:23.255Z,69.15
2018-05-06T02:08:44.262Z,69.06
2018-05-06T02:09:23.266Z,69.15
2018-05-06T02:10:46.223Z,69.15
2018-05-06T02:11:44.762Z,69.63
2018-05-06T02:12:23.762Z,69.06
2018-05-06T02:13:23.762Z,69.25
2018-05-06T02:14:24.268Z,69.44
2018-05-06T02:15:45.269Z,69.15
2018-05-06T02:16:24.261Z,69.25
2018-05-06T02:17:24.261Z,69.50
2018-05-06T02:18:24.766Z,69.69
2018-05-06T02:19:38.761Z,69.54
2018-05-06T02:20:27.693Z,69.79
2018-05-06T02:21:45.761Z,69.21
2018-05-06T02:23:56.512Z,70.07
2018-05-06T02:24:56.518Z,69.54
2018-05-06T02:25:57.515Z,69.50
2018-05-06T02:26:56.107Z,69.50
2018-05-06T02:27:57.020Z,69.79
2018-05-06T02:28:57.025Z,69.12
2018-05-06T02:29:57.017Z,69.21
2018-05-06T02:30:57.518Z,69.50
2018-05-06T02:32:11.518Z,69.50
2018-05-06T02:33:03.521Z,69.69
2018-05-06T02:33:57.518Z,69.50
2018-05-06T02:35:21.019Z,69.69
2018-05-06T02:35:58.017Z,69.50
2018-05-06T02:36:59.949Z,69.21
2018-05-06T02:37:58.014Z,69.02
2018-05-06T02:38:58.517Z,69.79
2018-05-06T02:39:57.737Z,69.88
2018-05-06T02:41:18.842Z,69.98
2018-05-06T02:41:58.516Z,69.98
2018-05-06T02:42:57.988Z,69.88
2018-05-06T02:43:59.017Z,70.36
2018-05-06T02:45:00.480Z,70.26
2018-05-06T02:45:59.017Z,70.26
2018-05-06T02:47:20.018Z,70.07
2018-05-06T02:48:00.994Z,69.98
2018-05-06T02:48:59.523Z,69.98
2018-05-06T02:49:59.516Z,69.98
2018-05-06T02:52:31.174Z,69.98
2018-05-06T02:53:32.728Z,70.26
2018-05-06T02:54:31.181Z,70.07
2018-05-06T02:55:31.684Z,70.07
2018-05-06T02:56:33.613Z,69.98
2018-05-06T02:57:31.680Z,69.88
2018-05-06T02:58:31.680Z,70.17
2018-05-06T02:59:32.181Z,70.54
2018-05-06T03:00:55.182Z,71.22
2018-05-06T03:03:03.707Z,71.78
2018-05-06T03:05:34.976Z,71.50
2018-05-06T03:06:35.709Z,71.41
2018-05-06T03:07:35.708Z,71.22
2018-05-06T03:10:07.456Z,70.93
2018-05-06T03:11:07.464Z,71.12
2018-05-06T03:12:07.474Z,71.59
2018-05-06T03:13:07.963Z,71.66
2018-05-06T03:14:07.964Z,71.88
2018-05-06T03:15:07.307Z,71.50
2018-05-06T03:16:07.962Z,71.69
2018-05-06T03:17:08.462Z,71.46
2018-05-06T03:18:08.466Z,71.69
2018-05-06T03:19:08.461Z,71.56
2018-05-06T03:20:08.473Z,72.13
2018-05-06T03:21:08.966Z,72.32
2018-05-06T03:22:09.894Z,72.32
2018-05-06T03:23:08.961Z,72.32
2018-05-06T03:24:29.961Z,72.03
2018-05-06T03:25:08.562Z,72.51
2018-05-06T03:26:09.460Z,72.70
2018-05-06T03:27:09.461Z,72.70
2018-05-06T03:28:23.459Z,72.51
2018-05-06T03:29:09.961Z,72.51
2018-05-06T03:31:09.962Z,72.70
2018-05-06T03:32:09.967Z,72.51
2018-05-06T03:34:41.703Z,72.60
2018-05-06T03:35:41.048Z,72.89
2018-05-06T03:36:41.141Z,72.79
2018-05-06T03:37:42.210Z,72.41
2018-05-06T03:38:42.215Z,72.79
2018-05-06T03:41:15.342Z,72.22
2018-05-06T03:42:14.410Z,72.22
2018-05-06T03:43:14.418Z,72.51
2018-05-06T03:44:14.910Z,72.32
2018-05-06T03:45:14.155Z,72.79
2018-05-06T03:46:35.911Z,72.89
2018-05-06T03:47:14.910Z,72.70
2018-05-06T03:48:15.411Z,72.79
2018-05-06T03:49:15.413Z,72.70
2018-05-06T03:50:15.410Z,72.41
2018-05-06T03:51:15.407Z,72.51
2018-05-06T03:52:15.924Z,73.08
2018-05-06T03:53:36.910Z,72.89
2018-05-06T03:54:15.900Z,73.46
2018-05-06T03:55:15.407Z,72.99
2018-05-06T03:56:17.841Z,73.27
2018-05-06T03:57:16.413Z,73.08
2018-05-06T03:58:16.416Z,73.46
2018-05-06T03:59:16.406Z,73.65
2018-05-06T04:00:16.912Z,73.27
2018-05-06T04:02:48.301Z,73.36
2018-05-06T04:03:48.309Z,72.99
2018-05-06T04:04:48.309Z,73.36
2018-05-06T04:05:48.813Z,73.27
2018-05-06T04:06:48.815Z,73.36
2018-05-06T04:07:48.149Z,73.36
2018-05-06T04:08:48.807Z,73.27
2018-05-06T04:09:49.315Z,73.36
2018-05-06T04:12:41.690Z,73.36
2018-05-06T04:13:20.692Z,73.36
2018-05-06T04:14:20.692Z,73.55
2018-05-06T04:15:21.194Z,74.12
2018-05-06T04:16:21.199Z,74.03
2018-05-06T04:17:21.194Z,74.03
2018-05-06T04:18:21.192Z,73.93
2018-05-06T04:19:21.692Z,74.03
2018-05-06T04:20:21.691Z,73.74
2018-05-06T04:21:21.824Z,74.12
2018-05-06T04:22:21.701Z,74.03
2018-05-06T04:23:22.193Z,73.84
2018-05-06T04:26:14.562Z,74.03
2018-05-06T04:29:56.500Z,73.65
2018-05-06T04:31:02.507Z,73.84
2018-05-06T04:31:56.507Z,73.74
2018-05-06T04:34:29.700Z,73.65
2018-05-06T04:35:28.267Z,73.84
2018-05-06T04:36:29.265Z,74.22
2018-05-06T04:37:30.706Z,74.12
2018-05-06T04:38:30.702Z,74.03
2018-05-06T04:39:28.775Z,74.03
2018-05-06T04:40:28.769Z,74.12
2018-05-06T04:41:29.269Z,74.03
2018-05-06T04:42:49.467Z,73.93
2018-05-06T04:43:50.273Z,73.74
2018-05-06T04:46:00.773Z,73.93
2018-05-06T04:47:21.779Z,73.46
2018-05-06T04:48:00.780Z,74.22
2018-05-06T04:49:22.280Z,74.12
2018-05-06T04:50:01.284Z,74.31
2018-05-06T04:51:01.279Z,74.60
2018-05-06T04:52:03.211Z,74.31
2018-05-06T04:53:00.871Z,74.12
2018-05-06T04:54:22.780Z,74.60
2018-05-06T04:55:01.779Z,74.69
2018-05-06T04:56:01.782Z,74.79
2018-05-06T04:57:22.781Z,75.21
2018-05-06T04:58:01.379Z,75.26
2018-05-06T04:59:23.284Z,75.45
2018-05-06T05:00:16.278Z,75.26
2018-05-06T05:01:01.812Z,76.06
2018-05-06T05:02:23.784Z,75.68
2018-05-06T05:03:02.778Z,75.87
2018-05-06T05:04:04.241Z,75.21
2018-05-06T05:05:02.778Z,76.25
2018-05-06T05:06:02.374Z,76.25
2018-05-06T05:07:03.285Z,76.25
2018-05-06T05:09:34.839Z,76.25
2018-05-06T05:10:55.844Z,76.16
2018-05-06T05:11:55.845Z,76.63
2018-05-06T05:12:49.353Z,76.35
2018-05-06T05:13:56.343Z,76.35
2018-05-06T05:14:35.380Z,76.63
2018-05-06T05:15:36.275Z,76.25
2018-05-06T05:19:38.500Z,76.29
2018-05-06T05:20:59.505Z,75.91
2018-05-06T05:21:59.504Z,76.39
2018-05-06T05:23:00.007Z,76.57
2018-05-06T05:23:38.226Z,76.29
2018-05-06T05:24:38.321Z,76.29
2018-05-06T05:25:39.003Z,76.29
2018-05-06T05:26:39.007Z,76.29
2018-05-06T05:27:39.505Z,75.62
2018-05-06T05:28:39.505Z,76.29
2018-05-06T05:30:02.505Z,75.53
2018-05-06T05:30:39.505Z,75.67
2018-05-06T05:32:01.005Z,75.67
2018-05-06T05:34:11.388Z,75.28
2018-05-06T05:35:11.397Z,75.09
2018-05-06T05:36:11.397Z,74.80
2018-05-06T05:37:11.015Z,75.09
2018-05-06T05:38:13.335Z,74.43
2018-05-06T05:39:11.905Z,74.24
2018-05-06T05:40:11.902Z,73.99
2018-05-06T05:41:11.895Z,74.65
2018-05-06T05:42:32.545Z,74.65
2018-05-06T05:45:06.229Z,74.08
2018-05-06T05:45:43.769Z,73.80
2018-05-06T05:46:44.756Z,74.08
2018-05-06T05:47:50.314Z,74.37
2018-05-06T05:50:36.631Z,73.55
2018-05-06T05:51:15.639Z,73.65
2018-05-06T05:52:16.605Z,73.07
2018-05-06T05:53:15.216Z,73.26
2018-05-06T05:54:17.070Z,72.50
2018-05-06T05:55:37.166Z,72.69
2018-05-06T05:56:15.486Z,72.50
2018-05-06T05:57:17.094Z,72.31
2018-05-06T05:58:16.644Z,71.58
2018-05-06T05:59:16.647Z,72.53
2018-05-06T06:00:16.638Z,71.77
2018-05-06T06:01:16.668Z,71.39
2018-05-06T06:02:17.164Z,70.06
2018-05-06T06:03:17.148Z,69.48
2018-05-06T06:04:17.138Z,66.56
2018-05-06T06:05:17.137Z,67.99
2018-05-06T06:06:17.645Z,68.57
2018-05-06T06:07:18.611Z,67.04
2018-05-06T06:08:17.636Z,65.42
2018-05-06T06:09:38.666Z,63.99
2018-05-06T06:10:18.139Z,63.07
2018-05-06T06:11:39.140Z,61.63
2018-05-06T06:12:20.138Z,60.24
2018-05-06T06:13:38.591Z,60.33
2018-05-06T06:14:18.639Z,60.04
2018-05-06T06:15:18.638Z,59.56
2018-05-06T06:16:18.643Z,57.94
2018-05-06T06:17:18.637Z,58.83
2018-05-06T06:18:18.638Z,57.68
2018-05-06T06:19:40.137Z,57.68
2018-05-06T06:20:39.362Z,56.82
2018-05-06T06:21:40.138Z,56.54
2018-05-06T06:22:19.138Z,57.24
2018-05-06T06:25:11.890Z,55.23
2018-05-06T06:26:12.911Z,54.85
2018-05-06T06:26:51.835Z,54.85
2018-05-06T06:27:50.449Z,54.66
2018-05-06T06:30:23.649Z,56.31
2018-05-06T06:31:22.722Z,55.64
2018-05-06T06:32:45.173Z,54.30
2018-05-06T06:33:43.256Z,54.49
2018-05-06T06:35:54.506Z,53.06
2018-05-06T06:36:53.878Z,51.81
2018-05-06T06:37:54.514Z,51.91
2018-05-06T06:39:16.026Z,51.62
2018-05-06T06:42:57.402Z,51.65
2018-05-06T06:43:57.492Z,51.46
2018-05-06T06:44:58.340Z,52.03
2018-05-06T06:46:19.338Z,51.75
2018-05-06T06:46:58.331Z,52.06
2018-05-06T06:48:21.285Z,52.15
2018-05-06T06:48:58.839Z,51.97
2018-05-06T06:50:12.831Z,51.97
2018-05-06T06:50:59.766Z,51.20
2018-05-06T06:53:31.392Z,49.19
2018-05-06T06:54:30.462Z,49.29
2018-05-06T06:55:30.466Z,48.83
2018-05-06T06:58:02.209Z,49.31
2018-05-06T06:59:02.216Z,48.64
2018-05-06T07:00:24.154Z,48.73
2018-05-06T07:02:54.929Z,49.33
2018-05-06T07:03:33.934Z,48.83
2018-05-06T07:04:58.214Z,48.47
2018-05-06T07:05:57.508Z,47.42
2018-05-06T07:06:54.645Z,48.75
2018-05-06T07:07:33.745Z,49.62
2018-05-06T07:08:56.372Z,49.24
2018-05-06T07:09:34.435Z,49.71
2018-05-06T07:10:34.934Z,49.81
2018-05-06T07:11:34.941Z,48.95
2018-05-06T07:12:34.943Z,47.42
2018-05-06T07:13:34.939Z,47.15
2018-05-06T07:14:35.436Z,47.73
2018-05-06T07:15:49.451Z,47.92
2018-05-06T07:18:27.981Z,47.06
2018-05-06T07:19:06.988Z,46.79
2018-05-06T07:20:06.462Z,47.08
2018-05-06T07:21:29.427Z,45.36
2018-05-06T07:22:07.487Z,45.16
2018-05-06T07:23:07.488Z,45.16
2018-05-06T07:24:09.487Z,45.16
2018-05-06T07:25:07.494Z,44.97
2018-05-06T07:26:07.988Z,46.60
2018-05-06T07:27:07.990Z,46.31
2018-05-06T07:28:07.988Z,45.09
2018-05-06T07:29:07.988Z,45.67
2018-05-06T07:30:08.491Z,45.86
2018-05-06T07:31:09.920Z,45.95
2018-05-06T07:32:08.545Z,45.57
2018-05-06T07:33:09.919Z,44.92
2018-05-06T07:34:07.957Z,45.21
2018-05-06T07:35:08.987Z,44.24
2018-05-06T07:36:08.987Z,44.92
2018-05-06T07:37:08.986Z,44.54
2018-05-06T07:38:08.988Z,46.07
2018-05-06T07:39:11.559Z,44.63
2018-05-06T07:40:09.488Z,44.44
2018-05-06T07:43:05.316Z,44.17
2018-05-06T07:43:42.876Z,44.65
2018-05-06T07:44:41.377Z,44.68
2018-05-06T07:45:41.376Z,43.81
2018-05-06T07:47:02.376Z,42.76
2018-05-06T07:47:41.379Z,42.66
2018-05-06T07:49:02.920Z,44.10
2018-05-06T07:49:43.308Z,43.23
2018-05-06T07:50:41.916Z,42.76
2018-05-06T07:53:13.441Z,43.23
2018-05-06T07:54:13.447Z,41.33
2018-05-06T07:55:35.441Z,42.77
2018-05-06T07:56:15.946Z,41.53
2018-05-06T07:58:45.362Z,41.53
2018-05-06T07:59:45.340Z,41.05
2018-05-06T08:00:45.340Z,41.05
2018-05-06T08:01:50.772Z,40.76
2018-05-06T08:02:45.069Z,39.79
2018-05-06T08:03:45.844Z,41.53
2018-05-06T08:04:45.840Z,40.95
2018-05-06T08:05:46.340Z,41.82
2018-05-06T08:06:49.272Z,41.91
2018-05-06T08:07:46.340Z,42.39
2018-05-06T08:09:08.338Z,41.93
2018-05-06T08:09:48.273Z,41.45
2018-05-06T08:11:07.840Z,42.41
2018-05-06T08:11:46.840Z,40.97
2018-05-06T08:13:07.844Z,39.91
2018-05-06T08:13:47.341Z,40.97
2018-05-06T08:15:08.341Z,40.51
2018-05-06T08:15:47.340Z,41.06
2018-05-06T08:16:47.340Z,41.47
2018-05-06T08:17:49.851Z,40.41
2018-05-06T08:20:19.246Z,39.26
2018-05-06T08:21:47.241Z,39.26
2018-05-06T08:22:20.718Z,41.66
2018-05-06T08:23:21.756Z,40.99
2018-05-06T08:26:11.409Z,40.61
2018-05-06T08:27:12.146Z,40.05
2018-05-06T08:27:50.649Z,40.03
2018-05-06T08:30:22.910Z,39.76
2018-05-06T08:31:22.921Z,38.99
2018-05-06T08:32:23.416Z,39.47
2018-05-06T08:33:26.848Z,38.70
2018-05-06T08:34:24.413Z,39.54
2018-05-06T08:35:23.418Z,39.47
2018-05-06T08:36:23.021Z,38.70
2018-05-06T08:37:37.998Z,39.06
2018-05-06T08:38:23.916Z,38.59
2018-05-06T08:39:23.919Z,39.36
2018-05-06T08:40:45.416Z,38.01
2018-05-06T08:41:51.416Z,39.74
2018-05-06T08:42:38.418Z,39.64
2018-05-06T08:43:45.414Z,40.81
2018-05-06T08:44:24.917Z,39.95
2018-05-06T08:45:24.913Z,38.41
2018-05-06T08:46:24.927Z,38.60
2018-05-06T08:47:24.917Z,37.81
2018-05-06T08:48:25.417Z,38.99
2018-05-06T08:50:56.831Z,39.18
2018-05-06T08:51:56.828Z,38.89
2018-05-06T08:52:56.828Z,38.60
2018-05-06T08:53:57.328Z,39.28
2018-05-06T08:54:58.260Z,39.28
2018-05-06T08:55:57.328Z,39.86
2018-05-06T08:56:57.332Z,39.56
2018-05-06T08:57:57.828Z,38.04
2018-05-06T09:00:52.727Z,37.27
2018-05-06T09:01:56.733Z,37.18
2018-05-06T09:02:50.074Z,37.46
2018-05-06T09:03:29.735Z,37.85
2018-05-06T09:04:31.699Z,37.76
2018-05-06T09:05:30.232Z,38.72
2018-05-06T09:06:30.230Z,36.79
2018-05-06T09:07:30.239Z,37.37
2018-05-06T09:10:02.003Z,38.33
2018-05-06T09:11:02.078Z,37.85
2018-05-06T09:12:02.012Z,37.76
2018-05-06T09:13:23.509Z,38.43
2018-05-06T09:14:02.508Z,37.87
2018-05-06T09:15:02.531Z,37.39
2018-05-06T09:16:03.004Z,37.19
2018-05-06T09:17:24.009Z,36.61
2018-05-06T09:18:03.012Z,38.06
2018-05-06T09:20:48.517Z,36.69
2018-05-06T09:21:34.523Z,37.16
2018-05-06T09:24:06.189Z,36.89
2018-05-06T09:25:06.200Z,38.62
2018-05-06T09:26:06.190Z,37.46
2018-05-06T09:28:37.960Z,36.61
2018-05-06T09:29:38.976Z,36.43
2018-05-06T09:30:37.968Z,36.23
2018-05-06T09:31:39.466Z,35.27
2018-05-06T09:32:38.469Z,36.13
2018-05-06T09:33:38.468Z,36.23
2018-05-06T09:34:38.468Z,37.01
2018-05-06T09:35:38.974Z,37.10
2018-05-06T09:36:38.972Z,36.83
2018-05-06T09:37:38.382Z,35.10
2018-05-06T09:38:41.900Z,35.08
2018-05-06T09:39:38.498Z,35.08
2018-05-06T09:41:02.466Z,35.08
2018-05-06T09:41:38.697Z,34.21
2018-05-06T09:42:38.799Z,35.48
2018-05-06T09:43:39.468Z,36.15
2018-05-06T09:44:39.079Z,35.28
2018-05-06T09:45:39.972Z,34.42
2018-05-06T09:46:39.972Z,34.52
2018-05-06T09:47:42.482Z,34.32
2018-05-06T09:50:11.301Z,34.70
2018-05-06T09:51:12.282Z,34.22
2018-05-06T09:52:12.234Z,34.44
2018-05-06T09:53:12.237Z,34.05
2018-05-06T09:54:12.734Z,34.82
2018-05-06T09:55:12.733Z,33.76
2018-05-06T09:57:50.133Z,34.34
2018-05-06T10:00:15.646Z,34.74
2018-05-06T10:01:15.653Z,34.36
2018-05-06T10:02:17.085Z,33.78
2018-05-06T10:03:16.153Z,32.81
2018-05-06T10:04:16.155Z,33.68
2018-05-06T10:05:16.152Z,33.00
2018-05-06T10:06:15.783Z,33.87
2018-05-06T10:09:09.046Z,34.34
2018-05-06T10:09:48.053Z,33.39
2018-05-06T10:11:02.553Z,33.58
2018-05-06T10:11:49.550Z,34.06
2018-05-06T10:12:48.566Z,32.91
2018-05-06T10:13:49.550Z,32.04
2018-05-06T10:15:03.052Z,33.20
2018-05-06T10:15:49.130Z,33.20
2018-05-06T10:16:48.413Z,32.52
2018-05-06T10:17:49.053Z,33.29
2018-05-06T10:18:48.662Z,32.23
2018-05-06T10:19:49.552Z,31.85
2018-05-06T10:20:49.552Z,32.14
2018-05-06T10:21:49.551Z,32.81
2018-05-06T10:22:50.059Z,33.22
2018-05-06T10:23:51.984Z,33.20
2018-05-06T10:24:50.050Z,31.57
2018-05-06T10:25:50.051Z,32.33
2018-05-06T10:27:12.520Z,33.40
2018-05-06T10:27:49.739Z,32.33
2018-05-06T10:29:11.552Z,32.91
2018-05-06T10:29:50.552Z,32.71
2018-05-06T10:30:52.491Z,31.85
2018-05-06T10:31:51.049Z,32.04
2018-05-06T10:33:13.051Z,32.64
2018-05-06T10:33:51.060Z,32.24
2018-05-06T10:34:51.053Z,32.64
2018-05-06T10:35:51.553Z,33.60
2018-05-06T10:36:51.560Z,33.70
2018-05-06T10:37:52.551Z,32.34
2018-05-06T10:38:53.485Z,32.64
2018-05-06T10:41:23.339Z,32.65
2018-05-06T10:42:23.388Z,31.98
2018-05-06T10:43:23.846Z,31.88
2018-05-06T10:44:23.875Z,32.94
2018-05-06T10:45:23.846Z,32.94
2018-05-06T10:46:23.846Z,33.04
2018-05-06T10:47:24.347Z,31.68
2018-05-06T10:48:24.347Z,31.88
2018-05-06T10:49:24.392Z,31.68
2018-05-06T10:50:23.937Z,31.20
2018-05-06T10:51:46.786Z,30.70
2018-05-06T10:52:24.077Z,31.86
2018-05-06T10:53:45.847Z,32.06
2018-05-06T10:54:38.847Z,31.88
2018-05-06T10:55:26.811Z,31.40
2018-05-06T10:56:47.808Z,31.20
2018-05-06T10:57:25.350Z,30.82
2018-05-06T10:58:25.346Z,31.88
2018-05-06T10:59:40.811Z,31.59
2018-05-06T11:02:18.194Z,31.20
2018-05-06T11:03:18.198Z,31.01
2018-05-06T11:05:49.247Z,30.15
2018-05-06T11:06:28.340Z,29.96
2018-05-06T11:07:28.470Z,30.44
2018-05-06T11:08:29.473Z,29.28
2018-05-06T11:09:28.705Z,30.15
2018-05-06T11:10:29.562Z,29.67
2018-05-06T11:11:29.486Z,29.56
2018-05-06T11:12:29.975Z,29.75
2018-05-06T11:13:30.906Z,29.75
2018-05-06T11:14:29.974Z,30.33
2018-05-06T11:15:29.974Z,29.85
2018-05-06T11:16:30.476Z,30.04
2018-05-06T11:17:29.700Z,30.33
2018-05-06T11:18:30.474Z,30.62
2018-05-06T11:19:51.475Z,30.44
2018-05-06T11:20:30.979Z,30.25
2018-05-06T11:21:31.952Z,30.63
2018-05-06T11:22:30.979Z,29.17
2018-05-06T11:23:30.974Z,29.27
2018-05-06T11:24:52.475Z,30.43
2018-05-06T11:25:31.473Z,30.24
2018-05-06T11:26:31.474Z,30.35
2018-05-06T11:27:31.467Z,30.44
2018-05-06T11:28:31.975Z,30.54
2018-05-06T11:29:56.427Z,29.28
2018-05-06T11:30:31.974Z,30.44
2018-05-06T11:31:45.974Z,30.27
2018-05-06T11:32:32.535Z,29.32
2018-05-06T11:33:32.477Z,28.25
2018-05-06T11:34:32.474Z,28.17
2018-05-06T11:35:32.475Z,28.28
2018-05-06T11:36:32.474Z,28.08
2018-05-06T11:37:32.980Z,28.28
2018-05-06T11:41:56.420Z,25.53
2018-05-06T11:42:36.129Z,25.34
2018-05-06T11:43:36.130Z,25.34
2018-05-06T11:44:38.628Z,25.32
2018-05-06T11:45:35.870Z,26.01
2018-05-06T11:46:36.630Z,25.54
2018-05-06T11:47:57.632Z,25.74
2018-05-06T11:48:37.197Z,25.45
2018-05-06T11:49:39.129Z,24.67
2018-05-06T11:52:08.535Z,23.97
2018-05-06T11:53:09.546Z,25.63
2018-05-06T11:54:10.041Z,24.67
2018-05-06T11:55:09.048Z,24.29
2018-05-06T11:56:09.044Z,24.39
2018-05-06T11:57:09.043Z,22.85
2018-05-06T11:58:32.042Z,23.43
2018-05-06T11:59:29.811Z,23.33
2018-05-06T12:00:08.864Z,23.73
2018-05-06T12:01:09.541Z,23.15
2018-05-06T12:02:09.550Z,22.66
2018-05-06T12:03:09.167Z,22.76
2018-05-06T12:04:09.298Z,22.85
2018-05-06T12:05:10.042Z,23.15
2018-05-06T12:06:10.047Z,22.86
2018-05-06T12:07:09.647Z,22.56
2018-05-06T12:08:12.019Z,23.25
2018-05-06T12:09:11.976Z,22.58
2018-05-06T12:10:32.054Z,23.35
2018-05-06T12:11:32.044Z,22.65
2018-05-06T12:12:32.042Z,22.54
2018-05-06T12:13:32.975Z,23.21
2018-05-06T12:14:11.044Z,22.72
2018-05-06T12:15:11.543Z,23.52
2018-05-06T12:16:11.550Z,22.36
2018-05-06T12:17:32.549Z,22.45
2018-05-06T12:18:11.544Z,22.77
2018-05-06T12:20:43.328Z,22.31
2018-05-06T12:21:44.811Z,21.53
2018-05-06T12:22:43.343Z,21.43
2018-05-06T12:23:46.321Z,21.83
2018-05-06T12:24:45.838Z,21.83
2018-05-06T12:25:43.838Z,21.83
2018-05-06T12:27:06.270Z,22.12
2018-05-06T12:27:50.336Z,22.11
2018-05-06T12:28:44.337Z,21.54
2018-05-06T12:30:05.337Z,20.95
2018-05-06T12:30:44.338Z,20.86
2018-05-06T12:33:17.120Z,20.47
2018-05-06T12:34:16.159Z,20.65
2018-05-06T12:35:17.603Z,21.23
2018-05-06T12:36:16.659Z,20.35
2018-05-06T12:37:16.661Z,20.24
2018-05-06T12:38:16.660Z,20.04
2018-05-06T12:39:39.619Z,20.06
2018-05-06T12:40:17.163Z,20.28
2018-05-06T12:41:17.156Z,20.00
2018-05-06T12:42:17.663Z,18.82
2018-05-06T12:43:17.690Z,18.54
2018-05-06T12:44:17.659Z,19.03
2018-05-06T12:45:17.668Z,19.52
2018-05-06T12:46:18.658Z,19.34
2018-05-06T12:47:18.160Z,18.54
2018-05-06T12:48:18.164Z,19.34
2018-05-06T12:49:18.163Z,18.46
2018-05-06T12:50:18.159Z,19.43
2018-05-06T12:51:18.663Z,18.46
2018-05-06T12:52:18.671Z,19.13
2018-05-06T12:53:18.659Z,19.13
2018-05-06T12:54:18.663Z,19.71
2018-05-06T12:55:19.264Z,19.63
2018-05-06T12:56:19.160Z,19.24
2018-05-06T12:57:19.160Z,18.55
2018-05-06T12:58:19.161Z,19.45
2018-05-06T12:59:19.660Z,18.46
2018-05-06T13:01:50.376Z,18.65
2018-05-06T13:02:51.090Z,19.42
2018-05-06T13:03:51.089Z,18.74
2018-05-06T13:04:51.594Z,18.54
2018-05-06T13:05:51.595Z,20.19
2018-05-06T13:06:51.593Z,20.01
2018-05-06T13:07:51.589Z,20.20
2018-05-06T13:08:52.090Z,19.14
2018-05-06T13:10:17.089Z,19.32
2018-05-06T13:10:52.089Z,19.31
2018-05-06T13:11:52.121Z,19.00
2018-05-06T13:13:13.598Z,19.89
2018-05-06T13:13:52.589Z,19.51
2018-05-06T13:16:24.136Z,19.23
2018-05-06T13:17:24.148Z,18.65
2018-05-06T13:18:24.628Z,18.66
2018-05-06T13:19:24.644Z,17.59
2018-05-06T13:20:24.644Z,17.02
2018-05-06T13:21:24.643Z,17.41
2018-05-06T13:24:17.472Z,17.24
2018-05-06T13:24:56.479Z,16.83
2018-05-06T13:25:55.984Z,17.12
2018-05-06T13:28:28.267Z,17.79
2018-05-06T13:29:28.274Z,17.41
2018-05-06T13:30:28.274Z,17.29
2018-05-06T13:31:29.736Z,17.66
2018-05-06T13:32:49.778Z,17.87
2018-05-06T13:33:28.774Z,18.16
2018-05-06T13:34:29.275Z,17.97
2018-05-06T13:35:28.395Z,17.30
2018-05-06T13:36:29.270Z,17.11
2018-05-06T13:37:49.630Z,17.71
2018-05-06T13:38:29.272Z,17.52
2018-05-06T13:41:03.106Z,17.29
2018-05-06T13:42:01.110Z,18.26
2018-05-06T13:43:22.160Z,19.82
2018-05-06T13:45:32.907Z,17.69
2018-05-06T13:46:33.365Z,17.79
2018-05-06T13:47:33.407Z,17.69
2018-05-06T13:48:33.408Z,18.16
2018-05-06T13:49:33.411Z,17.80
2018-05-06T13:50:54.412Z,17.21
2018-05-06T13:51:33.910Z,17.70
2018-05-06T13:52:33.154Z,17.40
2018-05-06T13:53:33.917Z,17.86
2018-05-06T13:54:33.919Z,18.35
2018-05-06T13:55:55.410Z,18.84
2018-05-06T13:56:35.852Z,19.24
2018-05-06T13:59:05.908Z,18.26
2018-05-06T14:01:37.456Z,18.34
2018-05-06T14:02:37.466Z,18.05
2018-05-06T14:03:37.475Z,17.77
2018-05-06T14:04:37.962Z,17.87
2018-05-06T14:05:37.962Z,17.19
2018-05-06T14:06:37.961Z,17.58
2018-05-06T14:07:38.515Z,17.96
2018-05-06T14:08:38.462Z,17.76
2018-05-06T14:09:38.469Z,17.77
2018-05-06T14:12:10.011Z,17.77
2018-05-06T14:13:10.017Z,17.87
2018-05-06T14:14:10.022Z,18.36
2018-05-06T14:15:10.526Z,17.38
2018-05-06T14:16:32.515Z,17.68
2018-05-06T14:17:10.517Z,17.58
2018-05-06T14:18:10.517Z,18.15
2018-05-06T14:19:11.017Z,18.73
2018-05-06T14:20:10.260Z,18.24
2018-05-06T14:21:32.017Z,17.66
2018-05-06T14:22:11.016Z,17.66
2018-05-06T14:23:32.516Z,18.25
2018-05-06T14:24:38.518Z,17.96
2018-05-06T14:25:10.881Z,17.46
2018-05-06T14:26:11.523Z,18.44
2018-05-06T14:27:33.017Z,18.25
2018-05-06T14:28:12.017Z,18.33
2018-05-06T14:29:33.017Z,18.52
2018-05-06T14:30:12.121Z,19.20
2018-05-06T14:31:12.554Z,19.29
2018-05-06T14:32:12.519Z,18.71
2018-05-06T14:33:18.516Z,18.62
2018-05-06T14:34:12.522Z,18.23
2018-05-06T14:35:35.019Z,18.82
2018-05-06T14:36:13.028Z,18.73
2018-05-06T14:37:13.016Z,19.31
2018-05-06T14:38:13.016Z,18.63
2018-05-06T14:42:16.799Z,18.54
2018-05-06T14:43:16.808Z,18.16
2018-05-06T14:44:16.813Z,17.68
2018-05-06T14:45:16.814Z,17.78
2018-05-06T14:47:48.631Z,17.86
2018-05-06T14:48:48.629Z,17.95
2018-05-06T14:49:48.631Z,17.76
2018-05-06T14:50:55.135Z,17.57
2018-05-06T14:51:49.131Z,18.05
2018-05-06T14:53:03.132Z,17.97
2018-05-06T14:53:49.137Z,17.87
2018-05-06T14:56:20.923Z,17.38
2018-05-06T14:57:42.932Z,17.86
2018-05-06T14:58:27.431Z,17.76
2018-05-06T14:59:21.430Z,18.23
2018-05-06T15:00:21.429Z,18.99
2018-05-06T15:01:42.432Z,19.29